Time;durP1;ratioP1;P1;durP2;ratioP2;P2;SDS_P1;SDS_P2;PMS_P1;PMS_P2;Temp;Humidity;BMP_temperature;BMP_pressure;BME280_temperature;BME280_humidity;BME280_pressure;Samples;Min_cycle;Max_cycle;Signal;HPM_P1;HPM_P2
2023/01/14 00:01:50;;;;;;;1.10;0.63;;;20.70;53.70;;;;;;5021014;28;20491;-65
2023/01/14 00:04:16;;;;;;;0.82;0.60;;;20.70;53.70;;;;;;5020882;28;20021;-65
2023/01/14 00:06:41;;;;;;;0.70;0.60;;;20.70;53.70;;;;;;5023881;28;20426;-66
2023/01/14 00:09:11;;;;;;;0.93;0.80;;;20.70;53.70;;;;;;5024979;28;20120;-66
2023/01/14 00:11:46;;;;;;;1.33;0.77;;;20.70;53.70;;;;;;5028100;28;20062;-65
2023/01/14 00:14:14;;;;;;;1.25;0.63;;;20.60;53.70;;;;;;5022768;28;20036;-66
2023/01/14 00:16:40;;;;;;;0.93;0.60;;;20.60;53.70;;;;;;5022935;28;20025;-65
2023/01/14 00:19:08;;;;;;;0.70;0.60;;;20.60;53.70;;;;;;5021791;28;20260;-66
2023/01/14 00:21:33;;;;;;;1.00;0.68;;;20.60;53.70;;;;;;5023509;28;20493;-65
2023/01/14 00:23:59;;;;;;;1.42;0.65;;;20.60;53.70;;;;;;5023600;28;20056;-65
2023/01/14 00:26:25;;;;;;;0.60;0.55;;;20.60;53.70;;;;;;5021211;28;20107;-65
2023/01/14 00:28:52;;;;;;;1.02;0.70;;;20.60;53.80;;;;;;5019202;28;20037;-65
2023/01/14 00:31:26;;;;;;;1.23;0.60;;;20.60;53.80;;;;;;5021801;28;20034;-66
2023/01/14 00:33:53;;;;;;;0.95;0.52;;;20.50;53.70;;;;;;5022836;28;20030;-65
2023/01/14 00:36:20;;;;;;;0.80;0.60;;;20.50;53.70;;;;;;5021995;28;20033;-65
2023/01/14 00:38:47;;;;;;;0.90;0.60;;;20.50;53.70;;;;;;5020041;28;20108;-65
2023/01/14 00:41:16;;;;;;;0.75;0.60;;;20.50;53.70;;;;;;5027391;28;20456;-66
2023/01/14 00:43:46;;;;;;;0.77;0.50;;;20.50;53.70;;;;;;5022394;28;20029;-65
2023/01/14 00:46:16;;;;;;;0.77;0.63;;;20.50;53.70;;;;;;5020319;28;20056;-65
2023/01/14 00:48:42;;;;;;;0.98;0.60;;;20.50;53.70;;;;;;5023161;28;20033;-64
2023/01/14 00:51:08;;;;;;;0.80;0.60;;;20.50;53.70;;;;;;5021516;28;20481;-65
2023/01/14 00:53:36;;;;;;;1.00;0.70;;;20.50;53.80;;;;;;5021452;28;20041;-65
2023/01/14 00:56:01;;;;;;;0.50;0.45;;;20.40;53.80;;;;;;5021747;28;20037;-66
2023/01/14 00:58:27;;;;;;;0.90;0.68;;;20.40;53.80;;;;;;5020640;28;20392;-64
2023/01/14 01:00:55;;;;;;;0.63;0.60;;;20.40;53.80;;;;;;5019541;28;20560;-65
2023/01/14 01:03:21;;;;;;;0.95;0.70;;;20.50;53.90;;;;;;5021741;28;20033;-65
2023/01/14 01:05:47;;;;;;;0.65;0.50;;;20.40;53.80;;;;;;5019747;28;20091;-66
2023/01/14 01:08:16;;;;;;;0.70;0.70;;;20.40;53.80;;;;;;5020859;28;20036;-65
2023/01/14 01:10:43;;;;;;;0.85;0.68;;;20.40;53.80;;;;;;5032793;28;20400;-64
2023/01/14 01:13:09;;;;;;;0.77;0.60;;;20.40;53.90;;;;;;5014650;28;20481;-65
2023/01/14 01:15:36;;;;;;;0.57;0.57;;;20.40;53.90;;;;;;5017207;28;20103;-66
2023/01/14 01:18:03;;;;;;;0.50;0.50;;;20.40;53.90;;;;;;5017120;28;20112;-65
2023/01/14 01:20:29;;;;;;;0.50;0.50;;;20.40;53.90;;;;;;5020700;28;20030;-65
2023/01/14 01:22:55;;;;;;;0.70;0.60;;;20.40;53.90;;;;;;5022733;28;20029;-65
2023/01/14 01:25:21;;;;;;;0.70;0.50;;;20.40;54.00;;;;;;5019335;28;20026;-64
2023/01/14 01:27:46;;;;;;;0.85;0.60;;;20.40;54.00;;;;;;5018917;28;20124;-65
2023/01/14 01:30:12;;;;;;;0.82;0.50;;;20.40;54.00;;;;;;5020474;28;20030;-65
2023/01/14 01:32:38;;;;;;;0.82;0.63;;;20.40;54.00;;;;;;5021306;28;20037;-64
2023/01/14 01:35:05;;;;;;;0.70;0.63;;;20.30;53.90;;;;;;5019952;28;20123;-65
2023/01/14 01:37:31;;;;;;;0.60;0.60;;;20.30;54.00;;;;;;5016737;28;20397;-65
2023/01/14 01:39:56;;;;;;;0.82;0.50;;;20.30;54.00;;;;;;5018517;28;20018;-65
2023/01/14 01:42:23;;;;;;;0.77;0.57;;;20.30;54.00;;;;;;5020814;28;20026;-65
2023/01/14 01:44:49;;;;;;;0.68;0.50;;;20.30;54.00;;;;;;5019779;28;20406;-65
2023/01/14 01:47:19;;;;;;;0.60;0.50;;;20.30;54.00;;;;;;5020132;28;20033;-68
2023/01/14 01:49:46;;;;;;;0.52;0.50;;;20.30;54.10;;;;;;5021535;28;20025;-65
2023/01/14 01:52:24;;;;;;;0.63;0.50;;;20.30;54.10;;;;;;5021683;28;20602;-65
2023/01/14 01:54:56;;;;;;;0.63;0.55;;;20.30;54.10;;;;;;5020751;28;20338;-66
2023/01/14 01:57:22;;;;;;;0.80;0.45;;;20.30;54.10;;;;;;5018853;28;20030;-65
2023/01/14 01:59:53;;;;;;;0.73;0.50;;;20.20;54.10;;;;;;5023074;28;20089;-65
2023/01/14 02:02:20;;;;;;;0.88;0.60;;;20.30;54.10;;;;;;5026889;28;20030;-66
2023/01/14 02:04:46;;;;;;;0.70;0.60;;;20.30;54.10;;;;;;5019695;28;20121;-64
2023/01/14 02:07:17;;;;;;;0.68;0.50;;;20.20;54.10;;;;;;5021021;28;20128;-67
2023/01/14 02:09:44;;;;;;;0.73;0.50;;;20.20;54.10;;;;;;5020942;28;20033;-64
2023/01/14 02:12:31;;;;;;;0.60;0.55;;;20.20;54.10;;;;;;5018846;28;20666;-65
2023/01/14 02:15:37;;;;;;;0.52;0.50;;;20.20;54.10;;;;;;5020087;28;20030;-65
2023/01/14 02:18:31;;;;;;;0.50;0.50;;;20.20;54.20;;;;;;5020801;28;20115;-65
2023/01/14 02:21:18;;;;;;;0.95;0.57;;;20.20;54.20;;;;;;5031649;28;20356;-66
2023/01/14 02:24:16;;;;;;;0.63;0.60;;;20.20;54.20;;;;;;5018366;28;20486;-64
2023/01/14 02:26:52;;;;;;;0.90;0.50;;;20.20;54.20;;;;;;5020296;28;20037;-65
2023/01/14 02:29:44;;;;;;;0.47;0.40;;;20.20;54.20;;;;;;5022372;28;20026;-66
2023/01/14 02:32:17;;;;;;;0.70;0.50;;;20.20;54.30;;;;;;5016701;28;20056;-65
2023/01/14 02:35:06;;;;;;;0.75;0.60;;;20.10;54.20;;;;;;5020157;28;20491;-65
2023/01/14 02:37:45;;;;;;;0.50;0.50;;;20.10;54.20;;;;;;5018296;28;20030;-65
2023/01/14 02:40:13;;;;;;;0.55;0.50;;;20.10;54.20;;;;;;5020254;28;20342;-65
2023/01/14 02:46:17;;;;;;;0.63;0.52;;;20.10;54.30;;;;;;5015157;28;20160;-65
2023/01/14 02:48:44;;;;;;;0.93;0.50;;;20.10;54.30;;;;;;5019141;28;20060;-65
2023/01/14 02:51:11;;;;;;;0.70;0.50;;;20.10;54.30;;;;;;5018776;28;20513;-65
2023/01/14 02:53:37;;;;;;;0.88;0.60;;;20.10;54.30;;;;;;5016820;28;20389;-65
2023/01/14 02:56:03;;;;;;;0.52;0.50;;;20.10;54.30;;;;;;5017165;28;20026;-65
2023/01/14 02:58:56;;;;;;;0.85;0.50;;;20.10;54.30;;;;;;5026647;28;20052;-65
2023/01/14 03:01:25;;;;;;;0.82;0.50;;;20.10;54.30;;;;;;5020031;28;20495;-65
2023/01/14 03:04:21;;;;;;;0.57;0.40;;;20.10;54.30;;;;;;5019617;28;20548;-66
2023/01/14 03:07:11;;;;;;;0.95;0.60;;;20.10;54.40;;;;;;5017771;28;20026;-65
2023/01/14 03:10:12;;;;;;;0.85;0.68;;;20.00;54.30;;;;;;5019364;28;20034;-65
2023/01/14 03:12:57;;;;;;;0.90;0.50;;;20.10;54.40;;;;;;5018460;28;20033;-65
2023/01/14 03:15:39;;;;;;;0.50;0.50;;;20.00;54.30;;;;;;5017889;28;20025;-65
2023/01/14 03:18:08;;;;;;;0.63;0.50;;;20.00;54.40;;;;;;5035646;28;20026;-66
2023/01/14 03:20:38;;;;;;;0.47;0.45;;;20.00;54.30;;;;;;5019112;28;20022;-65
2023/01/14 03:23:11;;;;;;;0.63;0.50;;;20.00;54.40;;;;;;5021268;28;20377;-66
2023/01/14 03:25:41;;;;;;;0.63;0.40;;;20.00;54.40;;;;;;5016813;28;20071;-65
2023/01/14 03:28:15;;;;;;;1.23;0.50;;;20.00;54.40;;;;;;5016465;28;20107;-66
2023/01/14 03:30:47;;;;;;;0.40;0.40;;;20.00;54.40;;;;;;5021110;28;20025;-65
2023/01/14 03:33:23;;;;;;;0.40;0.40;;;20.00;54.40;;;;;;5019038;28;20493;-65
2023/01/14 03:35:50;;;;;;;0.80;0.60;;;20.00;54.40;;;;;;5018472;28;20044;-64
2023/01/14 03:38:22;;;;;;;0.57;0.50;;;20.00;54.40;;;;;;5018503;28;20132;-64
2023/01/14 03:40:50;;;;;;;0.55;0.50;;;20.00;54.40;;;;;;5014422;28;20109;-66
2023/01/14 03:43:37;;;;;;;0.70;0.50;;;20.00;54.40;;;;;;5017549;28;20034;-66
2023/01/14 03:46:03;;;;;;;0.50;0.43;;;19.90;54.40;;;;;;5016320;28;20276;-65
2023/01/14 03:48:29;;;;;;;0.55;0.40;;;19.90;54.40;;;;;;5021886;28;20024;-66
2023/01/14 03:51:25;;;;;;;0.68;0.40;;;19.90;54.50;;;;;;5035393;28;20037;-65
2023/01/14 03:54:09;;;;;;;0.50;0.45;;;19.90;54.40;;;;;;5019383;28;20548;-66
2023/01/14 03:56:59;;;;;;;0.45;0.40;;;19.90;54.50;;;;;;5022266;28;20025;-67
2023/01/14 03:59:53;;;;;;;0.80;0.50;;;19.90;54.50;;;;;;5022470;28;20331;-65
2023/01/14 04:02:20;;;;;;;1.38;0.45;;;19.90;54.50;;;;;;5022566;28;20049;-66
2023/01/14 04:04:47;;;;;;;0.50;0.50;;;19.90;54.50;;;;;;5021721;28;20028;-64
2023/01/14 04:07:13;;;;;;;0.60;0.45;;;19.90;54.50;;;;;;5022615;28;20036;-64
2023/01/14 04:09:39;;;;;;;0.75;0.57;;;19.90;54.50;;;;;;5020352;28;20026;-65
2023/01/14 04:12:05;;;;;;;0.47;0.40;;;19.90;54.50;;;;;;5022186;28;20026;-66
2023/01/14 04:17:14;;;;;;;0.45;0.40;;;19.90;54.60;;;;;;5020409;28;20095;-65
2023/01/14 04:19:40;;;;;;;0.40;0.40;;;19.90;54.60;;;;;;5021504;28;20499;-66
2023/01/14 04:22:05;;;;;;;0.60;0.50;;;19.90;54.60;;;;;;5020616;28;20108;-65
2023/01/14 04:24:31;;;;;;;0.40;0.40;;;19.90;54.60;;;;;;5021733;28;20484;-65
2023/01/14 04:26:57;;;;;;;0.40;0.40;;;19.90;54.50;;;;;;5019658;28;20026;-65
2023/01/14 04:29:22;;;;;;;0.40;0.40;;;19.90;54.60;;;;;;5022548;28;20025;-66
2023/01/14 04:31:48;;;;;;;0.60;0.50;;;19.90;54.60;;;;;;5022220;28;20030;-65
2023/01/14 04:34:14;;;;;;;0.30;0.30;;;19.90;54.60;;;;;;5021050;28;20543;-64
2023/01/14 04:36:39;;;;;;;0.73;0.50;;;19.90;54.60;;;;;;5020897;28;20025;-65
2023/01/14 04:39:05;;;;;;;0.60;0.50;;;19.90;54.60;;;;;;5016004;28;20389;-65
2023/01/14 04:44:14;;;;;;;0.50;0.40;;;19.80;54.50;;;;;;5022347;28;20096;-66
2023/01/14 04:46:40;;;;;;;0.57;0.43;;;19.80;54.50;;;;;;5021338;28;20034;-66
2023/01/14 04:49:06;;;;;;;0.40;0.40;;;19.80;55.00;;;;;;5021151;28;20029;-64
2023/01/14 04:51:31;;;;;;;0.50;0.45;;;19.80;54.50;;;;;;5023917;28;20037;-66
2023/01/14 04:53:57;;;;;;;0.47;0.40;;;19.80;54.50;;;;;;5021920;28;20112;-64
2023/01/14 04:56:23;;;;;;;0.60;0.40;;;19.80;54.60;;;;;;5016177;28;20035;-65
2023/01/14 04:58:48;;;;;;;0.82;0.50;;;19.80;54.60;;;;;;5023718;28;20033;-65
2023/01/14 05:01:14;;;;;;;0.55;0.50;;;19.80;54.60;;;;;;5020732;28;20018;-65
2023/01/14 05:03:39;;;;;;;0.43;0.40;;;19.80;54.60;;;;;;5018266;28;20470;-64
2023/01/14 05:06:05;;;;;;;0.55;0.40;;;19.80;54.60;;;;;;5019246;28;20040;-65
2023/01/14 05:08:31;;;;;;;0.40;0.40;;;19.80;54.60;;;;;;5018431;28;20075;-64
2023/01/14 05:10:56;;;;;;;0.30;0.30;;;19.80;54.60;;;;;;5016879;28;20044;-66
2023/01/14 05:13:22;;;;;;;0.40;0.40;;;19.80;54.70;;;;;;5019505;28;20425;-66
2023/01/14 05:15:48;;;;;;;0.32;0.32;;;19.80;54.70;;;;;;5017162;28;20041;-65
2023/01/14 05:18:15;;;;;;;0.50;0.40;;;19.80;54.70;;;;;;5021300;28;20426;-65
2023/01/14 05:20:42;;;;;;;0.65;0.57;;;19.80;54.70;;;;;;5019768;28;20033;-65
2023/01/14 05:23:11;;;;;;;0.52;0.40;;;19.80;54.70;;;;;;5019708;28;20481;-65
2023/01/14 05:25:37;;;;;;;0.30;0.30;;;19.70;55.20;;;;;;5021027;28;20339;-66
2023/01/14 05:28:05;;;;;;;0.50;0.50;;;19.80;54.70;;;;;;5020588;28;20042;-65
2023/01/14 05:30:32;;;;;;;0.40;0.40;;;19.80;54.70;;;;;;5020960;28;20030;-65
2023/01/14 05:32:57;;;;;;;0.75;0.60;;;19.70;54.70;;;;;;5019655;28;20440;-65
2023/01/14 05:35:23;;;;;;;0.90;0.50;;;19.80;54.80;;;;;;5020865;28;20025;-66
2023/01/14 05:37:49;;;;;;;1.02;0.60;;;19.70;54.70;;;;;;5015053;28;20026;-65
2023/01/14 05:40:15;;;;;;;0.50;0.40;;;19.70;54.70;;;;;;5020525;28;20026;-65
2023/01/14 05:48:09;;;;;;;0.32;0.32;;;19.70;54.70;;;;;;5020108;28;20041;-65
2023/01/14 05:50:36;;;;;;;0.50;0.45;;;19.70;54.80;;;;;;5017974;28;20521;-65
2023/01/14 05:53:02;;;;;;;0.38;0.38;;;19.70;54.80;;;;;;5021694;28;20064;-65
2023/01/14 05:55:28;;;;;;;0.63;0.35;;;19.70;54.80;;;;;;5016765;28;20485;-65
2023/01/14 05:57:56;;;;;;;0.52;0.40;;;19.70;54.80;;;;;;5019255;28;20072;-65
2023/01/14 06:08:33;;;;;;;0.45;0.40;;;19.70;54.90;;;;;;5025311;28;20063;-65
2023/01/14 06:11:00;;;;;;;0.65;0.50;;;19.70;54.90;;;;;;5021802;28;20145;-65
2023/01/14 06:13:26;;;;;;;0.70;0.50;;;19.70;54.90;;;;;;5019047;28;20025;-67
2023/01/14 06:15:52;;;;;;;0.47;0.45;;;19.70;54.90;;;;;;5019284;28;20025;-66
2023/01/14 06:18:22;;;;;;;0.40;0.40;;;19.70;54.90;;;;;;5026329;28;20018;-66
2023/01/14 06:20:53;;;;;;;0.52;0.50;;;19.70;54.90;;;;;;5020365;28;20030;-66
2023/01/14 06:23:21;;;;;;;0.50;0.50;;;19.70;54.90;;;;;;5021495;28;20038;-67
2023/01/14 06:25:48;;;;;;;0.50;0.50;;;19.70;54.90;;;;;;5018588;28;20026;-65
2023/01/14 06:28:15;;;;;;;0.40;0.40;;;19.70;55.00;;;;;;5024965;28;20153;-65
2023/01/14 06:30:41;;;;;;;0.73;0.50;;;19.60;54.90;;;;;;5017066;28;20090;-64
2023/01/14 06:33:08;;;;;;;0.82;0.70;;;19.70;55.00;;;;;;5023328;28;20477;-65
2023/01/14 06:35:34;;;;;;;1.63;0.68;;;19.60;54.90;;;;;;5027336;28;20041;-67
2023/01/14 06:38:05;;;;;;;0.60;0.60;;;19.70;55.00;;;;;;5013410;28;20496;-64
2023/01/14 06:40:31;;;;;;;0.60;0.60;;;19.60;55.00;;;;;;5021431;28;20029;-65
2023/01/14 06:42:56;;;;;;;1.02;0.60;;;19.60;55.00;;;;;;5016014;28;20030;-65
2023/01/14 06:45:23;;;;;;;0.95;0.70;;;19.60;55.00;;;;;;5017459;28;20125;-67
2023/01/14 06:47:50;;;;;;;0.68;0.60;;;19.60;55.00;;;;;;5017973;28;20022;-65
2023/01/14 06:50:18;;;;;;;0.68;0.60;;;19.60;55.10;;;;;;5021216;28;20025;-65
2023/01/14 06:52:44;;;;;;;1.35;0.70;;;19.60;55.00;;;;;;5020290;28;20025;-64
2023/01/14 06:55:10;;;;;;;1.10;0.73;;;19.60;55.00;;;;;;5018421;28;20034;-65
2023/01/14 06:57:35;;;;;;;0.70;0.70;;;19.60;55.00;;;;;;5018314;28;20160;-65
2023/01/14 07:00:01;;;;;;;1.00;0.80;;;19.60;55.00;;;;;;5021481;28;20051;-65
2023/01/14 07:02:27;;;;;;;0.80;0.63;;;19.60;55.10;;;;;;5019130;28;20022;-65
2023/01/14 07:04:52;;;;;;;1.00;0.80;;;19.60;55.10;;;;;;5018755;28;20400;-66
2023/01/14 07:07:18;;;;;;;0.80;0.70;;;19.60;55.10;;;;;;5019388;28;20037;-65
2023/01/14 07:09:44;;;;;;;0.80;0.70;;;19.60;55.10;;;;;;5020639;28;20168;-65
2023/01/14 07:12:10;;;;;;;0.90;0.80;;;19.60;55.10;;;;;;5019317;28;20026;-65
2023/01/14 07:14:35;;;;;;;1.17;0.77;;;19.60;55.10;;;;;;5021226;28;20092;-65
2023/01/14 07:17:02;;;;;;;1.02;0.75;;;19.60;55.10;;;;;;5018008;28;20053;-65
2023/01/14 07:19:27;;;;;;;0.98;0.70;;;19.60;55.10;;;;;;5015168;28;20464;-64
2023/01/14 07:21:53;;;;;;;0.90;0.70;;;19.60;55.20;;;;;;5021988;28;20109;-65
2023/01/14 07:24:19;;;;;;;1.13;0.80;;;19.60;55.10;;;;;;5018942;28;20030;-66
2023/01/14 07:26:44;;;;;;;0.85;0.80;;;19.60;55.10;;;;;;5020724;28;20215;-65
2023/01/14 07:29:10;;;;;;;1.17;0.80;;;19.60;55.10;;;;;;5025465;28;20403;-65
2023/01/14 07:31:36;;;;;;;0.93;0.70;;;19.60;55.20;;;;;;5020786;28;20045;-65
2023/01/14 07:34:01;;;;;;;2.05;0.70;;;19.60;55.20;;;;;;5021363;28;20026;-65
2023/01/14 07:36:27;;;;;;;1.20;0.82;;;19.60;55.20;;;;;;5017861;28;20053;-66
2023/01/14 07:38:52;;;;;;;1.00;0.70;;;19.60;55.30;;;;;;5021016;28;20034;-65
2023/01/14 07:41:20;;;;;;;1.15;0.80;;;19.50;55.20;;;;;;5022451;28;20453;-66
2023/01/14 07:43:46;;;;;;;1.13;0.80;;;19.50;55.20;;;;;;5020304;28;20027;-65
2023/01/14 07:46:12;;;;;;;0.77;0.68;;;19.50;55.20;;;;;;5025037;28;20029;-65
2023/01/14 07:48:38;;;;;;;1.05;0.73;;;19.50;55.30;;;;;;5021647;28;20034;-65
2023/01/14 07:51:05;;;;;;;0.90;0.73;;;19.50;55.20;;;;;;5025317;28;20032;-65
2023/01/14 07:53:30;;;;;;;1.25;0.85;;;19.50;55.30;;;;;;5022857;28;20490;-67
2023/01/14 07:55:56;;;;;;;1.25;0.80;;;19.50;55.30;;;;;;5021987;28;20129;-66
2023/01/14 07:58:23;;;;;;;1.13;0.70;;;19.60;55.30;;;;;;5023538;28;20026;-65
2023/01/14 08:00:49;;;;;;;0.98;0.73;;;19.60;55.40;;;;;;5023594;28;20022;-65
2023/01/14 08:03:15;;;;;;;1.30;0.90;;;19.60;55.40;;;;;;5023861;28;20095;-65
2023/01/14 08:05:40;;;;;;;1.20;0.80;;;19.60;55.40;;;;;;5017445;28;20056;-66
2023/01/14 08:08:06;;;;;;;1.10;0.80;;;19.50;55.40;;;;;;5021174;28;20465;-65
2023/01/14 08:10:32;;;;;;;1.10;0.90;;;19.50;55.40;;;;;;5022430;28;20030;-65
2023/01/14 08:12:57;;;;;;;1.30;0.80;;;19.50;55.40;;;;;;5023420;28;20069;-65
2023/01/14 08:15:23;;;;;;;1.17;0.90;;;19.60;55.50;;;;;;5023770;28;20118;-66
2023/01/14 08:17:49;;;;;;;1.38;0.80;;;19.50;55.40;;;;;;5022120;28;20025;-65
2023/01/14 08:20:15;;;;;;;1.00;0.88;;;19.50;55.40;;;;;;5022203;28;20061;-66
2023/01/14 08:22:41;;;;;;;1.25;0.90;;;19.50;55.40;;;;;;5020880;28;20171;-66
2023/01/14 08:25:07;;;;;;;0.95;0.80;;;19.50;55.50;;;;;;5019955;28;20180;-65
2023/01/14 08:27:33;;;;;;;1.17;0.80;;;19.50;55.50;;;;;;5023578;28;20120;-65
2023/01/14 08:29:59;;;;;;;0.90;0.70;;;19.50;55.50;;;;;;5024138;28;20023;-65
2023/01/14 08:32:25;;;;;;;1.95;0.80;;;19.50;55.60;;;;;;5023140;28;20121;-66
2023/01/14 08:34:51;;;;;;;0.93;0.80;;;19.50;55.60;;;;;;5018546;28;20037;-64
2023/01/14 08:37:16;;;;;;;1.33;0.90;;;19.50;55.60;;;;;;5022894;28;20511;-65
2023/01/14 08:39:42;;;;;;;1.38;1.00;;;19.50;55.60;;;;;;5021004;28;20048;-65
2023/01/14 08:42:07;;;;;;;1.48;0.80;;;19.50;55.60;;;;;;5022702;28;20038;-65
2023/01/14 08:44:33;;;;;;;1.40;0.90;;;19.50;55.70;;;;;;5022466;28;20672;-64
2023/01/14 08:46:59;;;;;;;1.45;0.90;;;19.50;55.70;;;;;;5020882;28;20042;-64
2023/01/14 08:49:24;;;;;;;2.80;0.88;;;19.50;55.70;;;;;;5018066;28;20030;-67
2023/01/14 08:51:50;;;;;;;1.80;1.00;;;19.50;55.80;;;;;;5033084;28;20038;-65
2023/01/14 08:54:16;;;;;;;1.15;0.93;;;19.50;55.70;;;;;;5020924;28;20045;-65
2023/01/14 08:56:42;;;;;;;1.05;0.82;;;19.50;55.90;;;;;;5019540;28;20494;-65
2023/01/14 08:59:07;;;;;;;1.45;0.90;;;19.50;55.80;;;;;;5021043;28;20144;-65
2023/01/14 09:01:33;;;;;;;1.23;0.80;;;19.40;55.80;;;;;;5025287;28;20526;-65
2023/01/14 09:04:00;;;;;;;2.50;0.80;;;19.50;55.90;;;;;;5021433;28;20029;-65
2023/01/14 09:06:26;;;;;;;1.70;0.80;;;19.50;56.40;;;;;;5021730;28;20017;-66
2023/01/14 09:17:17;;;;;;;1.67;0.80;;;19.40;55.90;;;;;;5022547;28;20078;-65
2023/01/14 09:19:47;;;;;;;1.02;0.82;;;19.40;55.90;;;;;;5026566;28;20061;-64
2023/01/14 09:22:17;;;;;;;1.77;0.80;;;19.40;55.90;;;;;;5018004;28;20029;-65
2023/01/14 09:24:43;;;;;;;1.48;0.80;;;19.40;56.00;;;;;;5018475;28;20037;-64
2023/01/14 09:27:09;;;;;;;1.48;0.85;;;19.40;56.00;;;;;;5023868;28;20036;-65
2023/01/14 09:29:34;;;;;;;1.90;0.98;;;19.50;56.20;;;;;;5019579;28;20033;-65
2023/01/14 09:32:00;;;;;;;1.13;0.82;;;19.40;56.10;;;;;;5019488;28;20037;-65
2023/01/14 09:34:26;;;;;;;1.73;0.73;;;19.40;56.10;;;;;;5025204;28;20029;-65
2023/01/14 09:36:53;;;;;;;1.80;0.80;;;19.40;56.10;;;;;;5023048;28;20037;-65
2023/01/14 09:39:19;;;;;;;1.08;0.80;;;19.40;56.10;;;;;;5020535;28;20104;-64
2023/01/14 09:41:51;;;;;;;1.08;0.80;;;19.40;56.10;;;;;;5022198;28;20097;-65
2023/01/14 09:44:18;;;;;;;1.95;0.70;;;19.40;56.10;;;;;;5030951;28;20030;-65
2023/01/14 09:46:44;;;;;;;1.10;0.80;;;19.40;56.20;;;;;;5021764;28;20034;-66
2023/01/14 09:49:13;;;;;;;1.45;0.82;;;19.40;56.10;;;;;;5023014;28;20032;-65
2023/01/14 09:52:02;;;;;;;0.73;0.70;;;19.40;56.10;;;;;;5019755;28;20040;-65
2023/01/14 09:54:43;;;;;;;1.10;0.80;;;19.40;56.20;;;;;;5017013;28;20503;-64
2023/01/14 09:57:24;;;;;;;0.90;0.77;;;19.40;56.20;;;;;;5036478;28;20045;-65
2023/01/14 10:00:00;;;;;;;1.30;0.80;;;19.40;56.20;;;;;;5018270;28;20029;-65
2023/01/14 10:02:44;;;;;;;1.52;0.80;;;19.40;56.30;;;;;;5016629;28;20022;-64
2023/01/14 10:05:32;;;;;;;0.98;0.80;;;19.40;56.30;;;;;;5022208;28;20068;-65
2023/01/14 10:08:02;;;;;;;1.65;0.75;;;19.40;56.20;;;;;;5019548;28;20405;-65
2023/01/14 10:10:36;;;;;;;1.65;0.90;;;19.40;56.30;;;;;;5020053;28;20105;-66
2023/01/14 10:13:33;;;;;;;1.27;0.80;;;19.40;56.30;;;;;;5023340;28;20038;-65
2023/01/14 10:16:04;;;;;;;0.90;0.70;;;19.40;56.30;;;;;;5035688;28;20108;-65
2023/01/14 10:18:57;;;;;;;0.95;0.80;;;19.40;56.30;;;;;;5014645;28;20029;-65
2023/01/14 10:21:25;;;;;;;1.10;0.77;;;19.40;56.40;;;;;;5012811;28;20034;-65
2023/01/14 10:23:52;;;;;;;0.68;0.68;;;19.40;56.40;;;;;;5016358;28;20025;-65
2023/01/14 10:26:20;;;;;;;1.25;0.77;;;19.40;56.40;;;;;;5020728;28;20052;-65
2023/01/14 10:28:49;;;;;;;1.33;0.75;;;19.40;56.50;;;;;;5015871;28;20121;-65
2023/01/14 10:31:21;;;;;;;;;;;19.40;56.50;;;;;;5018972;28;20061;-64
2023/01/14 10:33:47;;;;;;;1.00;0.70;;;19.40;56.50;;;;;;5022294;28;19909;-66
2023/01/14 10:36:16;;;;;;;1.33;0.80;;;19.40;56.40;;;;;;5015544;28;20489;-65
2023/01/14 10:38:42;;;;;;;1.08;0.80;;;19.40;56.50;;;;;;5017585;28;20037;-66
2023/01/14 10:41:10;;;;;;;1.90;0.88;;;19.40;56.60;;;;;;5016961;28;20342;-65
2023/01/14 10:43:42;;;;;;;1.55;0.80;;;19.40;56.60;;;;;;5020077;28;20018;-65
2023/01/14 10:46:13;;;;;;;1.30;0.80;;;19.40;56.70;;;;;;5021083;28;20076;-66
2023/01/14 10:48:59;;;;;;;1.50;0.70;;;19.40;56.60;;;;;;5018666;28;20489;-65
2023/01/14 10:51:36;;;;;;;1.27;0.73;;;19.40;56.60;;;;;;5020376;28;20509;-64
2023/01/14 10:54:20;;;;;;;1.35;0.90;;;19.40;56.70;;;;;;5018642;28;20855;-64
2023/01/14 10:56:52;;;;;;;1.35;0.80;;;19.40;56.60;;;;;;5024600;28;20136;-65
2023/01/14 10:59:21;;;;;;;1.05;0.73;;;19.40;56.70;;;;;;5025787;28;20033;-65
2023/01/14 11:01:47;;;;;;;2.00;0.90;;;19.40;56.80;;;;;;5023457;28;20508;-65
2023/01/14 11:04:13;;;;;;;1.45;0.82;;;19.40;56.80;;;;;;5025524;28;20033;-66
2023/01/14 11:06:39;;;;;;;1.70;0.82;;;19.40;56.80;;;;;;5031017;28;20481;-66
2023/01/14 11:09:05;;;;;;;1.65;0.90;;;19.30;56.80;;;;;;5023247;28;20088;-65
2023/01/14 11:11:40;;;;;;;1.25;0.80;;;19.40;57.40;;;;;;5024505;28;20673;-65
2023/01/14 11:14:26;;;;;;;1.65;1.00;;;19.40;57.00;;;;;;5025644;28;20049;-65
2023/01/14 11:16:52;;;;;;;1.85;0.80;;;19.40;57.00;;;;;;5022113;28;20500;-65
2023/01/14 11:19:21;;;;;;;1.35;0.90;;;19.40;56.90;;;;;;5019274;28;20037;-65
2023/01/14 11:21:50;;;;;;;1.52;0.80;;;19.40;57.00;;;;;;5021579;28;20025;-64
2023/01/14 11:24:37;;;;;;;1.73;0.90;;;19.40;57.10;;;;;;5020404;28;20481;-65
2023/01/14 11:27:22;;;;;;;1.10;0.80;;;19.40;57.20;;;;;;5023121;28;20124;-65
2023/01/14 11:29:54;;;;;;;1.10;0.80;;;19.40;57.10;;;;;;5018205;28;20033;-67
2023/01/14 11:32:34;;;;;;;1.35;0.90;;;19.40;57.10;;;;;;5024289;28;20401;-65
2023/01/14 11:35:03;;;;;;;1.60;0.73;;;19.40;57.10;;;;;;5021651;28;20040;-65
2023/01/14 11:37:42;;;;;;;1.10;0.70;;;19.40;57.10;;;;;;5021410;28;20520;-64
2023/01/14 11:40:20;;;;;;;1.58;0.90;;;19.40;57.10;;;;;;5025022;28;20040;-65
2023/01/14 11:42:46;;;;;;;1.45;0.80;;;19.40;57.40;;;;;;5023910;28;20049;-65
2023/01/14 11:45:12;;;;;;;0.93;0.60;;;19.40;57.40;;;;;;5022909;28;20434;-65
2023/01/14 11:47:51;;;;;;;1.95;0.70;;;19.40;57.40;;;;;;5021273;28;20026;-64
2023/01/14 11:50:19;;;;;;;1.48;0.80;;;19.40;57.40;;;;;;5024676;28;20034;-66
2023/01/14 11:52:57;;;;;;;1.67;0.80;;;19.40;57.50;;;;;;5022110;28;20073;-65
2023/01/14 11:55:23;;;;;;;2.17;0.90;;;19.40;57.50;;;;;;5025361;28;20041;-66
2023/01/14 11:57:49;;;;;;;0.80;0.77;;;19.40;57.50;;;;;;5021287;28;20492;-64
2023/01/14 12:00:15;;;;;;;1.30;0.60;;;19.50;57.50;;;;;;5021256;28;20026;-64
2023/01/14 12:02:46;;;;;;;1.63;0.88;;;19.40;57.50;;;;;;5022816;28;20030;-64
2023/01/14 12:05:15;;;;;;;1.63;0.68;;;19.40;57.50;;;;;;5020665;28;20385;-65
2023/01/14 12:07:52;;;;;;;2.75;0.70;;;19.40;57.60;;;;;;5023014;28;20022;-65
2023/01/14 12:10:39;;;;;;;1.90;0.90;;;19.40;57.70;;;;;;5021691;28;20514;-65
2023/01/14 12:19:14;;;;;;;1.27;0.80;;;19.40;57.80;;;;;;5022347;28;20041;-66
2023/01/14 12:21:49;;;;;;;2.08;0.88;;;19.50;57.90;;;;;;5023834;28;20018;-65
2023/01/14 12:24:28;;;;;;;2.38;0.80;;;19.40;57.90;;;;;;5023515;28;20112;-65
2023/01/14 12:26:56;;;;;;;2.28;0.80;;;19.40;57.90;;;;;;5020469;28;20029;-65
2023/01/14 12:29:29;;;;;;;1.52;0.90;;;19.40;57.90;;;;;;5019953;28;20045;-64
2023/01/14 12:32:16;;;;;;;1.05;0.70;;;19.40;57.90;;;;;;5021040;28;20036;-65
2023/01/14 12:34:45;;;;;;;1.20;0.85;;;19.50;58.00;;;;;;5020169;28;20481;-65
2023/01/14 12:37:22;;;;;;;2.13;0.90;;;19.40;57.90;;;;;;5023931;28;20033;-65
2023/01/14 12:45:57;;;;;;;1.70;0.80;;;19.40;58.00;;;;;;5014569;28;20203;-66
2023/01/14 12:48:26;;;;;;;2.72;0.90;;;19.50;58.10;;;;;;5018729;28;20140;-65
2023/01/14 12:50:57;;;;;;;1.85;0.75;;;19.50;58.10;;;;;;5020954;28;20084;-65
2023/01/14 12:53:29;;;;;;;1.80;0.80;;;19.50;58.00;;;;;;5022267;28;20064;-64
2023/01/14 12:55:59;;;;;;;1.42;0.80;;;19.50;58.00;;;;;;5021003;28;20143;-65
2023/01/14 12:58:29;;;;;;;1.27;0.82;;;19.50;57.90;;;;;;5022277;28;20113;-65
2023/01/14 13:00:59;;;;;;;1.52;0.95;;;19.50;58.00;;;;;;5021294;28;20053;-65
2023/01/14 13:03:33;;;;;;;1.45;0.90;;;19.50;58.00;;;;;;5019982;28;20473;-64
2023/01/14 13:06:08;;;;;;;1.70;0.70;;;19.50;58.10;;;;;;5022492;28;20034;-65
2023/01/14 13:08:35;;;;;;;2.42;0.90;;;19.50;58.10;;;;;;5019071;28;20103;-65
2023/01/14 13:11:05;;;;;;;2.53;0.93;;;19.50;58.10;;;;;;5019105;28;20029;-64
2023/01/14 13:13:40;;;;;;;1.77;0.70;;;19.50;58.10;;;;;;5020380;28;20369;-64
2023/01/14 13:16:36;;;;;;;2.20;0.70;;;19.60;58.20;;;;;;5022503;28;20018;-65
2023/01/14 13:19:05;;;;;;;1.55;0.82;;;19.50;58.30;;;;;;5019023;28;20052;-65
2023/01/14 13:21:54;;;;;;;1.93;0.80;;;19.50;58.20;;;;;;5021337;28;20164;-66
2023/01/14 13:24:32;;;;;;;3.20;0.90;;;19.60;58.30;;;;;;5021560;28;20061;-64
2023/01/14 13:27:01;;;;;;;2.20;0.85;;;19.50;58.70;;;;;;5021603;28;20398;-65
2023/01/14 13:29:30;;;;;;;2.13;0.80;;;19.50;58.20;;;;;;5021320;28;20507;-64
2023/01/14 13:31:56;;;;;;;1.70;0.80;;;19.60;58.30;;;;;;5018649;28;20038;-64
2023/01/14 13:34:21;;;;;;;2.20;0.85;;;19.60;58.30;;;;;;5021007;28;20037;-64
2023/01/14 13:37:08;;;;;;;3.45;1.20;;;19.60;58.30;;;;;;5015349;28;20058;-64
2023/01/14 13:39:34;;;;;;;2.13;1.00;;;19.60;58.20;;;;;;5021810;28;20030;-64
2023/01/14 13:42:13;;;;;;;3.53;1.17;;;19.60;58.30;;;;;;5021363;28;20075;-65
2023/01/14 13:44:45;;;;;;;2.67;1.07;;;19.60;58.30;;;;;;5020819;28;20041;-65
2023/01/14 13:47:23;;;;;;;3.08;1.00;;;19.60;58.40;;;;;;5019566;28;20624;-64